D/T METAR WX W/DIR W/SPE G/SPE TEMP DEWP
25/02/20 14:20 EGXC 251420Z 25014KT 9999 FEW025CB 08/01 Q0994 TEMPO -SHRA SCT020CB RMK BLU TEMPO WHT WSW (250°) 16.1mph 8°C 1°C
25/02/20 13:50 EGXC 251350Z 26014KT 9999 FEW025CB SCT180 08/00 Q0995 TEMPO 7000 SHRA SCT020CB RMK BLU TEMPO WHT W (260°) 16.1mph 8°C 0°C
25/02/20 13:21 EGXC 251321Z 25016KT 9999 FEW025CB SCT035 09/01 Q0995 TEMPO -SHRA SCT020CB RMK BLU TEMPO WHT WSW (250°) 18.4mph 9°C 1°C
25/02/20 12:50 EGXC 251250Z 26014KT 9999 SCT034 08/01 Q0996 TEMPO -SHRA SCT020 RMK BLU TEMPO WHT W (260°) 16.1mph 8°C 1°C
25/02/20 12:23 EGXC 251223Z 27012KT 9999 BKN035 08/00 Q0996 NOSIG RMK BLU BLU W (270°) 13.8mph 8°C 0°C
25/02/20 11:50 EGXC 251150Z 28016KT 9999 BKN032 07/M01 Q0996 NOSIG RMK BLU BLU W (280°) 18.4mph 7°C -1°C
25/02/20 11:20 EGXC 251120Z 27016KT 9999 FEW028 07/00 Q0996 NOSIG RMK BLU BLU W (270°) 18.4mph 7°C 0°C
25/02/20 10:50 EGXC 251050Z 27017KT 9999 SCT030 07/M00 Q0997 NOSIG RMK BLU BLU W (270°) 19.6mph 7°C 0°C
25/02/20 10:23 EGXC 251023Z 27018KT 9999 FEW030 07/00 Q0997 TEMPO SCT022 RMK BLU TEMPO WHT W (270°) 20.7mph 7°C 0°C
25/02/20 09:50 EGXC 250950Z 26015KT 9999 FEW020 06/02 Q0997 TEMPO SCT020 RMK BLU TEMPO WHT W (260°) 17.3mph 6°C 2°C
25/02/20 09:25 EGXC 250925Z 25014KT 9999 FEW016 06/02 Q0997 TEMPO SCT016 RMK BLU TEMPO WHT WSW (250°) 16.1mph 6°C 2°C
25/02/20 08:50 EGXC 250850Z 25014KT 9999 FEW016 05/02 Q0998 TEMPO SCT016 RMK BLU TEMPO WHT WSW (250°) 16.1mph 5°C 2°C
25/02/20 08:21 EGXC 250821Z 25011KT 9999 SCT020 SCT080 04/02 Q0998 TEMPO FEW020 RMK WHT TEMPO BLU WSW (250°) 12.7mph 4°C 2°C
25/02/20 07:50 EGXC 250750Z 24013KT 9999 FEW032 SCT080 04/01 Q0998 TEMPO -SHRA SCT020 RMK BLU TEMPO WHT WSW (240°) 15.0mph 4°C 1°C
25/02/20 07:20 EGXC 250720Z 22005KT 9999 FEW035 03/01 Q0998 TEMPO -SHRA SCT018 RMK BLU TEMPO WHT SW (220°) 5.8mph 3°C 1°C
25/02/20 06:50 EGXC 250650Z 22006KT 9999 FEW035 01/M00 Q0998 TEMPO -SHRA SCT018 RMK BLU TEMPO WHT SW (220°) 6.9mph 1°C 0°C
25/02/20 05:50 EGXC 250550Z 24009KT 9999 FEW030 02/01 Q0998 RMK BLU WSW (240°) 10.4mph 2°C 1°C
25/02/20 04:50 EGXC 250450Z 25012KT 9999 FEW030 03/01 Q0999 RMK BLU WSW (250°) 13.8mph 3°C 1°C
25/02/20 03:50 EGXC 250350Z 25013KT 9999 FEW030 04/01 Q0999 RMK BLU WSW (250°) 15.0mph 4°C 1°C
25/02/20 02:50 EGXC 250250Z 26014KT 9999 FEW030 04/01 Q1000 RMK BLU W (260°) 16.1mph 4°C 1°C
25/02/20 01:56 EGXC 250156Z 26015KT 9999 FEW030 05/01 Q1000 RMK BLU W (260°) 17.3mph 5°C 1°C
25/02/20 00:50 EGXC 250050Z 26012KT 9999 FEW030 05/01 Q1000 RMK BLU W (260°) 13.8mph 5°C 1°C
24/02/20 23:50 EGXC 242350Z 26015KT 9999 FEW035 06/01 Q1000 RMK BLU W (260°) 17.3mph 6°C 1°C
24/02/20 22:50 EGXC 242250Z 26015KT 9999 FEW035 06/01 Q1000 RMK BLU W (260°) 17.3mph 6°C 1°C
24/02/20 21:50 EGXC 242150Z 26014KT 9999 FEW035 07/02 Q1000 RMK BLU W (260°) 16.1mph 7°C 2°C
24/02/20 20:50 EGXC 242050Z 27018KT 9999 FEW035 07/01 Q1000 RMK BLU W (270°) 20.7mph 7°C 1°C
24/02/20 19:50 EGXC 241950Z 26021KT 9999 FEW030 08/01 Q0999 RMK BLU W (260°) 24.2mph 8°C 1°C
24/02/20 18:50 EGXC 241850Z 28028G44KT 9999 FEW040 09/02 Q0999 RMK BLU W (280°) 32.2mph 50.6mph 9°C 2°C
24/02/20 17:50 EGXC 241750Z 26020KT 9999 SCT040 SCT250 11/06 Q0998 RMK BLU W (260°) 23.0mph 11°C 6°C
24/02/20 16:50 EGXC 241650Z 25024KT 9999 FEW030 SCT050 BKN250 12/07 Q0997 RMK BLU WSW (250°) 27.6mph 12°C 7°C
24/02/20 16:20 EGXC 241620Z 25025KT 9999 FEW030 BKN250 13/07 Q0996 NOSIG RMK BLU BLU WSW (250°) 28.8mph 13°C 7°C
24/02/20 15:50 EGXC 241550Z 25020G31KT 9999 SCT040 BKN250 13/09 Q0997 NOSIG RMK BLU BLU WSW (250°) 23.0mph 35.7mph 13°C 9°C
24/02/20 15:20 EGXC 241520Z 25022G36KT 9999 BKN040 BKN250 14/10 Q0997 NOSIG RMK BLU BLU WSW (250°) 25.3mph 41.4mph 14°C 10°C
24/02/20 14:50 EGXC 241450Z 24021KT 9999 FEW022 BKN040 BKN250 14/10 Q0997 NOSIG RMK BLU BLU WSW (240°) 24.2mph 14°C 10°C
24/02/20 14:20 EGXC 241420Z 24020G30KT 9999 FEW020 BKN040 BKN250 13/10 Q0997 NOSIG RMK BLU BLU WSW (240°) 23.0mph 34.5mph 13°C 10°C
24/02/20 13:50 EGXC 241350Z 24020KT 9999 SCT020 BKN040 BKN090 13/10 Q0998 BECMG SCT030 RMK WHT BECMG BLU WSW (240°) 23.0mph 13°C 10°C
24/02/20 13:20 EGXC 241320Z 23020KT 9999 SCT020 BKN030 12/10 Q0998 BECMG SCT030 RMK WHT BECMG BLU SW (230°) 23.0mph 12°C 10°C
24/02/20 12:50 EGXC 241250Z 23021KT 9999 FEW018 BKN030 12/09 Q0998 TEMPO SCT015 RMK BLU TEMPO WHT SW (230°) 24.2mph 12°C 9°C
24/02/20 12:20 EGXC 241220Z 23020KT 9999 FEW015 SCT028 BKN090 12/09 Q0999 NOSIG RMK BLU BLU SW (230°) 23.0mph 12°C 9°C
24/02/20 11:50 EGXC 241150Z 23020KT 9999 SCT015 BKN090 11/09 Q1000 BECMG SCT030 RMK WHT BECMG BLU SW (230°) 23.0mph 11°C 9°C
24/02/20 11:20 EGXC 241120Z 23019KT 9999 SCT015 BKN090 11/09 Q1000 TEMPO SCT014 RMK WHT TEMPO GRN SW (230°) 21.9mph 11°C 9°C
24/02/20 10:50 EGXC 241050Z 22019KT 9999 -RA FEW014 SCT020 BKN030 10/09 Q1001 TEMPO SCT014 RMK WHT TEMPO GRN -RA SW (220°) 21.9mph 10°C 9°C
24/02/20 10:20 EGXC 241020Z 21017KT 9999 -RA FEW014 BKN030 OVC070 09/09 Q1001 TEMPO SCT014 RMK BLU TEMPO GRN -RA SSW (210°) 19.6mph 9°C 9°C
24/02/20 09:50 EGXC 240950Z 20016KT 8000 -RA FEW005 SCT014 BKN030 08/08 Q1002 NOSIG RMK GRN GRN -RA SSW (200°) 18.4mph 8°C 8°C
24/02/20 09:20 EGXC 240920Z 19017KT 8000 RA BKN005 BKN012 BKN030 07/07 Q1003 BECMG FEW006 BKN012 RMK YLO1 BECMG GRN RA S (190°) 19.6mph 7°C 7°C
24/02/20 08:50 EGXC 240850Z 19015KT 7000 RA SCT004 BKN005 OVC012 07/06 Q1004 BECMG 8000 -RA FEW004 RMK YLO2 BECMG YLO1 RA S (190°) 17.3mph 7°C 6°C
24/02/20 08:20 EGXC 240820Z 18012KT 7000 RA BKN004 OVC012 06/06 Q1005 BECMG BKN005 RMK YLO2 BECMG YLO1 RA S (180°) 13.8mph 6°C 6°C
24/02/20 07:50 EGXC 240750Z 16012KT 4000 RA BKN004 OVC015 05/05 Q1006 BECMG BKN006 RMK YLO2 BECMG YLO1 RA SSE (160°) 13.8mph 5°C 5°C